Terminal Aerodrome Forecast
Issued by NWS

Home | Current Version | Previous Version | Text Only | Print | Product List | Glossary On
Versions: 1 2 3 4 5 6 7 8 9 10 11 12 13 14
000
FTUS42 KTAE 101100
TAFECP
TAF
KECP 101125Z 1012/1112 00000KT P6SM FEW015 SCT120
     FM101400 25007KT P6SM SCT030 BKN250
     FM101800 21010KT P6SM BKN035
      TEMPO 1020/1024 3SM +TSRA OVC030CB
     FM110200 25004KT P6SM BKN100 OVC250
     FM110900 00000KT P6SM SCT250=

USA.gov is the U.S. government's official web portal to all federal, state and local government web resources and services.